createdAt,value
2023-01-23T00:01:08.831Z,12.57
2023-01-23T00:03:35.907Z,13.40
2023-01-23T00:06:08.829Z,12.80
2023-01-23T00:08:36.721Z,12.20
2023-01-23T00:11:15.964Z,10.73
2023-01-23T00:13:43.038Z,13.33
2023-01-23T00:16:13.669Z,10.93
2023-01-23T00:18:40.865Z,11.23
2023-01-23T00:21:10.584Z,12.90
2023-01-23T00:23:37.557Z,11.63
2023-01-23T00:26:10.962Z,11.10
2023-01-23T00:28:38.508Z,11.83
2023-01-23T00:31:13.016Z,11.43
2023-01-23T00:33:40.927Z,12.33
2023-01-23T00:36:08.334Z,11.47
2023-01-23T00:38:35.677Z,13.00
2023-01-23T00:41:03.059Z,11.07
2023-01-23T00:43:30.470Z,12.10
2023-01-23T00:45:57.599Z,14.40
2023-01-23T00:48:24.500Z,11.67
2023-01-23T00:50:51.856Z,12.90
2023-01-23T00:53:18.752Z,12.70
2023-01-23T00:55:45.756Z,13.03
2023-01-23T00:58:12.491Z,12.43
2023-01-23T01:00:40.303Z,11.13
2023-01-23T01:03:08.044Z,14.23
2023-01-23T01:05:35.358Z,10.80
2023-01-23T01:08:03.871Z,15.60
2023-01-23T01:10:32.777Z,13.13
2023-01-23T01:13:02.030Z,13.83
2023-01-23T01:15:29.845Z,13.40
2023-01-23T01:17:57.835Z,14.87
2023-01-23T01:20:26.831Z,16.00
2023-01-23T01:22:54.903Z,13.80
2023-01-23T01:25:22.009Z,16.33
2023-01-23T01:27:48.915Z,18.57
2023-01-23T01:30:17.368Z,15.83
2023-01-23T01:32:44.904Z,14.40
2023-01-23T01:35:13.779Z,14.73
2023-01-23T01:37:41.806Z,13.17
2023-01-23T01:40:14.525Z,13.87
2023-01-23T01:42:48.091Z,15.10
2023-01-23T01:45:52.530Z,13.27
2023-01-23T01:48:22.944Z,12.63
2023-01-23T01:50:49.894Z,12.97
2023-01-23T01:53:16.871Z,16.97
2023-01-23T01:55:44.219Z,15.70
2023-01-23T01:58:11.109Z,16.20
2023-01-23T02:00:37.969Z,15.20
2023-01-23T02:03:04.796Z,14.13
2023-01-23T02:05:41.487Z,13.90
2023-01-23T02:08:44.943Z,17.90
2023-01-23T02:11:11.976Z,17.10
2023-01-23T02:13:40.405Z,20.00
2023-01-23T02:16:12.517Z,18.30
2023-01-23T02:18:45.134Z,20.83
2023-01-23T02:21:19.978Z,21.17
2023-01-23T02:24:31.146Z,21.07
2023-01-23T02:26:58.705Z,20.03
2023-01-23T02:29:26.703Z,19.43
2023-01-23T02:31:56.798Z,20.97
2023-01-23T02:34:26.013Z,18.97
2023-01-23T02:36:55.903Z,22.60
2023-01-23T02:39:23.446Z,18.03
2023-01-23T02:41:54.328Z,18.47
2023-01-23T02:44:28.200Z,20.50
2023-01-23T02:47:12.338Z,18.03
2023-01-23T02:49:40.741Z,17.30
2023-01-23T02:52:09.849Z,15.53
2023-01-23T02:54:36.938Z,21.67
2023-01-23T02:57:04.355Z,20.07
2023-01-23T02:59:50.153Z,18.77
2023-01-23T03:02:17.409Z,19.03
2023-01-23T03:04:44.297Z,18.70
2023-01-23T03:07:11.101Z,17.13
2023-01-23T03:09:37.948Z,18.53
2023-01-23T03:12:04.805Z,16.37
2023-01-23T03:14:32.374Z,19.87
2023-01-23T03:16:59.198Z,16.13
2023-01-23T03:19:31.247Z,16.57
2023-01-23T03:21:59.517Z,18.23
2023-01-23T03:24:26.262Z,18.27
2023-01-23T03:26:53.111Z,17.83
2023-01-23T03:29:44.510Z,16.90
2023-01-23T03:32:15.169Z,17.37
2023-01-23T03:34:43.345Z,18.07
2023-01-23T03:37:11.693Z,16.27
2023-01-23T03:39:58.481Z,17.63
2023-01-23T03:42:26.196Z,17.00
2023-01-23T03:44:55.998Z,18.93
2023-01-23T03:47:26.499Z,17.80
2023-01-23T03:49:55.080Z,15.47
2023-01-23T03:52:22.068Z,17.67
2023-01-23T03:54:48.885Z,18.40
2023-01-23T03:57:15.821Z,18.80
2023-01-23T03:59:48.297Z,19.13
2023-01-23T04:02:17.713Z,15.47
2023-01-23T04:04:44.593Z,17.67
2023-01-23T04:07:11.653Z,21.70
2023-01-23T04:09:40.619Z,16.87
2023-01-23T04:12:07.652Z,19.70
2023-01-23T04:14:38.579Z,19.53
2023-01-23T04:17:07.198Z,17.13
2023-01-23T04:19:35.130Z,17.90
2023-01-23T04:22:02.593Z,16.87
2023-01-23T04:24:33.606Z,17.60
2023-01-23T04:27:00.402Z,18.20
2023-01-23T04:29:28.398Z,17.37
2023-01-23T04:31:55.173Z,18.23
2023-01-23T04:34:22.296Z,18.20
2023-01-23T04:36:51.065Z,16.73
2023-01-23T04:39:17.904Z,17.30
2023-01-23T04:41:47.925Z,19.67
2023-01-23T04:44:27.628Z,18.43
2023-01-23T04:47:20.111Z,17.33
2023-01-23T04:49:48.181Z,20.20
2023-01-23T04:52:15.077Z,17.40
2023-01-23T04:54:48.592Z,18.70
2023-01-23T04:57:15.392Z,17.03
2023-01-23T04:59:42.207Z,17.17
2023-01-23T05:02:09.804Z,16.60
2023-01-23T05:04:41.378Z,17.50
2023-01-23T05:07:12.278Z,21.33
2023-01-23T05:09:43.571Z,19.80
2023-01-23T05:12:13.713Z,23.13
2023-01-23T05:14:41.843Z,25.53
2023-01-23T05:17:08.682Z,35.20
2023-01-23T05:19:40.165Z,32.93
2023-01-23T05:22:07.135Z,34.27
2023-01-23T05:24:34.020Z,32.33
2023-01-23T05:27:00.819Z,34.60
2023-01-23T05:29:30.630Z,32.63
2023-01-23T05:32:02.210Z,28.23
2023-01-23T05:34:51.427Z,22.90
2023-01-23T05:37:25.750Z,24.67
2023-01-23T05:39:59.708Z,23.70
2023-01-23T05:42:41.800Z,19.20
2023-01-23T05:45:28.481Z,19.53
2023-01-23T05:47:56.174Z,20.60
2023-01-23T05:50:24.749Z,19.70
2023-01-23T05:52:51.688Z,19.67
2023-01-23T05:55:18.733Z,21.00
2023-01-23T05:57:47.529Z,19.00
2023-01-23T06:00:33.028Z,19.73
2023-01-23T06:03:22.804Z,19.53
2023-01-23T06:06:16.772Z,17.87
2023-01-23T06:08:43.592Z,21.07
2023-01-23T06:11:10.407Z,16.77
2023-01-23T06:13:37.355Z,16.03
2023-01-23T06:16:04.443Z,16.30
2023-01-23T06:18:31.364Z,18.93
2023-01-23T06:20:59.979Z,18.57
2023-01-23T06:23:28.548Z,20.63
2023-01-23T06:26:04.862Z,17.70
2023-01-23T06:28:33.451Z,17.80
2023-01-23T06:31:02.621Z,16.03
2023-01-23T06:33:50.001Z,17.87
2023-01-23T06:36:17.596Z,16.97
2023-01-23T06:38:44.485Z,16.73
2023-01-23T06:41:12.933Z,17.13
2023-01-23T06:43:45.499Z,17.17
2023-01-23T06:46:17.899Z,18.73
2023-01-23T06:48:44.962Z,17.30
2023-01-23T06:51:11.981Z,16.20
2023-01-23T06:53:42.372Z,16.73
2023-01-23T06:56:12.132Z,16.40
2023-01-23T06:58:39.197Z,15.87
2023-01-23T07:01:11.093Z,15.23
2023-01-23T07:04:04.113Z,15.10
2023-01-23T07:06:31.468Z,17.17
2023-01-23T07:08:58.303Z,19.03
2023-01-23T07:11:25.468Z,15.57
2023-01-23T07:13:52.240Z,15.47
2023-01-23T07:16:19.863Z,17.37
2023-01-23T07:18:46.766Z,15.00
2023-01-23T07:21:13.535Z,18.40
2023-01-23T07:23:40.266Z,17.47
2023-01-23T07:26:10.079Z,15.63
2023-01-23T07:28:37.940Z,17.03
2023-01-23T07:31:05.663Z,16.13
2023-01-23T07:33:32.484Z,14.57
2023-01-23T07:35:59.283Z,16.67
2023-01-23T07:38:26.092Z,15.00
2023-01-23T07:40:53.295Z,14.70
2023-01-23T07:43:20.219Z,17.10
2023-01-23T07:45:47.006Z,13.77
2023-01-23T07:48:13.737Z,15.93
2023-01-23T07:50:40.526Z,17.13
2023-01-23T07:53:07.283Z,13.47
2023-01-23T07:55:34.321Z,13.00
2023-01-23T07:58:01.127Z,12.57
2023-01-23T08:00:29.876Z,12.23
2023-01-23T08:02:57.119Z,13.73
2023-01-23T08:05:24.248Z,13.10
2023-01-23T08:07:55.688Z,14.67
2023-01-23T08:10:27.603Z,12.17
2023-01-23T08:12:54.421Z,12.40
2023-01-23T08:15:21.167Z,11.53
2023-01-23T08:17:47.948Z,11.47
2023-01-23T08:20:15.123Z,10.80
2023-01-23T08:22:41.993Z,12.40
2023-01-23T08:25:10.218Z,11.97
2023-01-23T08:27:37.537Z,12.03
2023-01-23T08:30:05.911Z,12.37
2023-01-23T08:32:34.578Z,12.30
2023-01-23T08:35:01.366Z,10.43
2023-01-23T08:37:28.550Z,11.33
2023-01-23T08:39:55.342Z,13.27
2023-01-23T08:42:22.119Z,15.73
2023-01-23T08:44:48.857Z,15.07
2023-01-23T08:47:15.578Z,13.27
2023-01-23T08:49:42.495Z,12.80
2023-01-23T08:52:09.258Z,15.83
2023-01-23T08:54:36.002Z,11.30
2023-01-23T08:57:03.042Z,12.63
2023-01-23T08:59:29.824Z,12.37
2023-01-23T09:01:56.589Z,14.43
2023-01-23T09:04:23.344Z,14.47
2023-01-23T09:06:50.149Z,12.47
2023-01-23T09:09:18.151Z,15.20
2023-01-23T09:11:46.608Z,15.20
2023-01-23T09:14:13.456Z,12.77
2023-01-23T09:16:41.433Z,14.80
2023-01-23T09:19:10.297Z,15.57
2023-01-23T09:21:37.091Z,16.17
2023-01-23T09:24:04.199Z,13.20
2023-01-23T09:26:30.990Z,16.53
2023-01-23T09:28:57.744Z,16.70
2023-01-23T09:31:25.028Z,13.77
2023-01-23T09:33:51.825Z,16.37
2023-01-23T09:36:18.603Z,15.43
2023-01-23T09:38:47.601Z,13.53
2023-01-23T09:41:23.428Z,14.07
2023-01-23T09:43:58.875Z,16.93
2023-01-23T09:46:44.221Z,14.53
2023-01-23T09:49:19.748Z,13.30
2023-01-23T09:51:58.340Z,17.20
2023-01-23T09:54:49.193Z,14.37
2023-01-23T09:57:33.317Z,15.20
2023-01-23T10:00:13.184Z,15.87
2023-01-23T10:02:44.176Z,17.37
2023-01-23T10:05:20.206Z,16.70
2023-01-23T10:07:58.694Z,14.77
2023-01-23T10:10:44.453Z,15.93
2023-01-23T10:13:19.577Z,15.27
2023-01-23T10:16:35.395Z,16.30
2023-01-23T10:19:14.603Z,13.03
2023-01-23T10:22:02.610Z,14.93
2023-01-23T10:24:45.518Z,15.37
2023-01-23T10:27:23.972Z,14.97
2023-01-23T10:29:57.707Z,14.13
2023-01-23T10:32:28.069Z,14.43
2023-01-23T10:35:13.062Z,14.87
2023-01-23T10:37:46.439Z,15.77
2023-01-23T10:40:39.068Z,18.83
2023-01-23T10:43:22.011Z,18.67
2023-01-23T10:45:50.309Z,17.37
2023-01-23T10:48:29.254Z,18.70
2023-01-23T10:50:56.149Z,20.43
2023-01-23T10:53:24.975Z,16.07
2023-01-23T10:55:58.923Z,16.50
2023-01-23T10:58:41.020Z,16.30
2023-01-23T11:01:27.203Z,16.00
2023-01-23T11:03:54.114Z,15.40
2023-01-23T11:06:25.935Z,12.33
2023-01-23T11:09:04.660Z,14.47
2023-01-23T11:11:32.579Z,11.47
2023-01-23T11:14:07.122Z,13.07
2023-01-23T11:16:34.728Z,12.30
2023-01-23T11:19:22.486Z,14.03
2023-01-23T11:21:52.284Z,12.90
2023-01-23T11:24:38.396Z,13.53
2023-01-23T11:27:29.947Z,14.03
2023-01-23T11:30:09.013Z,13.30
2023-01-23T11:32:46.595Z,12.47
2023-01-23T11:35:16.473Z,13.70
2023-01-23T11:37:43.451Z,11.47
2023-01-23T11:40:16.962Z,12.10
2023-01-23T11:42:44.916Z,14.20
2023-01-23T11:45:13.605Z,11.03
2023-01-23T11:47:49.439Z,13.63
2023-01-23T11:50:28.454Z,12.50
2023-01-23T11:53:17.464Z,11.77
2023-01-23T11:56:07.215Z,12.17
2023-01-23T11:58:49.746Z,17.90
2023-01-23T12:01:33.785Z,14.20
2023-01-23T12:04:19.527Z,12.70
2023-01-23T12:07:04.762Z,12.97
2023-01-23T12:09:45.332Z,11.70
2023-01-23T12:13:02.343Z,10.77
2023-01-23T12:15:56.967Z,11.47
2023-01-23T12:18:33.227Z,11.50
2023-01-23T12:21:18.678Z,9.93
2023-01-23T12:24:11.085Z,10.20
2023-01-23T12:26:47.269Z,11.07
2023-01-23T12:29:38.157Z,10.07
2023-01-23T12:32:34.866Z,9.90
2023-01-23T12:35:33.673Z,10.03
2023-01-23T12:38:11.663Z,10.17
2023-01-23T12:40:52.289Z,8.27
2023-01-23T12:43:47.243Z,10.40
2023-01-23T12:46:42.290Z,9.57
2023-01-23T12:49:17.980Z,8.83
2023-01-23T12:51:51.146Z,8.93
2023-01-23T12:54:29.642Z,8.27
2023-01-23T12:56:57.669Z,8.30
2023-01-23T12:59:49.398Z,7.90
2023-01-23T13:02:33.808Z,9.50
2023-01-23T13:05:26.432Z,8.20
2023-01-23T13:08:16.046Z,10.13
2023-01-23T13:11:23.160Z,9.63
2023-01-23T13:13:50.058Z,9.13
2023-01-23T13:16:18.827Z,10.73
2023-01-23T13:19:15.871Z,11.13
2023-01-23T13:22:32.291Z,9.03
2023-01-23T13:25:17.636Z,11.40
2023-01-23T13:28:21.958Z,9.60
2023-01-23T13:31:00.953Z,11.10
2023-01-23T13:33:33.242Z,12.63
2023-01-23T13:36:34.428Z,13.70
2023-01-23T13:39:13.214Z,15.30
2023-01-23T13:41:39.960Z,11.50
2023-01-23T13:44:40.224Z,11.53
2023-01-23T14:21:41.856Z,11.17
2023-01-23T14:27:21.521Z,11.87
2023-01-23T14:30:00.651Z,14.00
2023-01-23T14:32:32.020Z,11.33
2023-01-23T14:34:59.060Z,11.13
2023-01-23T14:37:28.152Z,10.57
2023-01-23T14:39:59.789Z,11.80
2023-01-23T14:42:30.295Z,13.20
2023-01-23T14:44:59.685Z,11.17
2023-01-23T14:47:34.282Z,12.97
2023-01-23T14:50:02.905Z,13.57
2023-01-23T14:52:30.973Z,15.30
2023-01-23T14:55:05.830Z,12.00
2023-01-23T14:57:35.366Z,11.23
2023-01-23T15:00:03.825Z,12.53
2023-01-23T15:02:33.783Z,13.30
2023-01-23T15:05:12.806Z,12.33
2023-01-23T15:07:47.698Z,10.27
2023-01-23T15:10:49.063Z,11.57
2023-01-23T15:13:25.591Z,12.10
2023-01-23T15:16:01.827Z,11.37
2023-01-23T15:18:33.924Z,10.17
2023-01-23T15:21:21.781Z,17.23
2023-01-23T15:24:05.969Z,11.00
2023-01-23T15:26:34.399Z,12.27
2023-01-23T15:29:23.102Z,13.80
2023-01-23T15:31:51.730Z,10.03
2023-01-23T15:34:31.027Z,11.37
2023-01-23T15:37:05.443Z,10.53
2023-01-23T15:39:39.466Z,9.97
2023-01-23T15:42:12.316Z,13.20
2023-01-23T15:44:39.976Z,12.40
2023-01-23T15:47:07.031Z,11.63
2023-01-23T15:49:35.847Z,10.47
2023-01-23T15:52:22.893Z,11.60
2023-01-23T15:54:55.417Z,11.43
2023-01-23T15:57:22.397Z,16.43
2023-01-23T15:59:49.125Z,14.43
2023-01-23T16:02:29.997Z,11.77
2023-01-23T16:04:57.277Z,13.43
2023-01-23T16:07:45.125Z,11.77
2023-01-23T16:10:22.245Z,12.47
2023-01-23T16:12:50.973Z,12.23
2023-01-23T16:15:29.376Z,16.27
2023-01-23T16:17:57.196Z,13.73
2023-01-23T16:20:28.991Z,13.00
2023-01-23T16:23:08.535Z,12.63
2023-01-23T16:25:45.096Z,13.67
2023-01-23T16:28:24.045Z,15.20
2023-01-23T16:30:51.797Z,16.60
2023-01-23T16:33:19.726Z,15.93
2023-01-23T16:35:47.328Z,14.80
2023-01-23T16:38:22.941Z,12.90
2023-01-23T16:40:51.627Z,12.13
2023-01-23T16:43:18.716Z,14.50
2023-01-23T16:45:45.599Z,14.90
2023-01-23T16:48:21.628Z,14.30
2023-01-23T16:51:05.013Z,14.43
2023-01-23T16:53:37.971Z,15.83
2023-01-23T16:56:05.775Z,14.57
2023-01-23T16:58:38.547Z,15.17
2023-01-23T17:01:13.184Z,11.37
2023-01-23T17:03:41.320Z,12.90
2023-01-23T17:06:16.216Z,14.53
2023-01-23T17:08:43.251Z,13.07
2023-01-23T17:11:23.055Z,13.80
2023-01-23T17:13:57.104Z,14.27
2023-01-23T17:16:27.589Z,17.37
2023-01-23T17:18:58.965Z,16.17
2023-01-23T17:21:32.229Z,14.17
2023-01-23T17:23:59.146Z,13.33
2023-01-23T17:26:26.346Z,12.63
2023-01-23T17:28:53.367Z,13.33
2023-01-23T17:31:25.667Z,24.20
2023-01-23T17:33:52.931Z,17.17
2023-01-23T17:36:19.850Z,14.43
2023-01-23T17:38:46.676Z,16.20
2023-01-23T17:41:15.113Z,12.90
2023-01-23T17:43:44.249Z,13.53
2023-01-23T17:46:32.406Z,14.80
2023-01-23T17:48:59.660Z,13.70
2023-01-23T17:51:26.784Z,17.47
2023-01-23T17:53:53.749Z,16.20
2023-01-23T17:56:20.607Z,15.13
2023-01-23T17:58:47.430Z,16.30
2023-01-23T18:01:22.249Z,14.77
2023-01-23T18:03:50.541Z,16.33
2023-01-23T18:06:18.626Z,15.00
2023-01-23T18:08:46.557Z,15.80
2023-01-23T18:11:18.846Z,14.57
2023-01-23T18:13:48.548Z,15.10
2023-01-23T18:16:39.586Z,15.33
2023-01-23T18:19:16.731Z,15.70
2023-01-23T18:21:45.952Z,15.30
2023-01-23T18:24:22.324Z,12.83
2023-01-23T18:26:59.686Z,15.37
2023-01-23T18:29:30.825Z,14.70
2023-01-23T18:32:18.926Z,16.20
2023-01-23T18:34:58.540Z,13.87
2023-01-23T18:37:44.340Z,19.00
2023-01-23T18:40:32.497Z,14.53
2023-01-23T18:43:18.981Z,17.00
2023-01-23T18:45:46.090Z,15.40
2023-01-23T18:48:25.031Z,15.43
2023-01-23T18:51:06.352Z,14.50
2023-01-23T18:53:46.958Z,16.50
2023-01-23T18:56:27.367Z,14.23
2023-01-23T18:59:10.967Z,15.77
2023-01-23T19:02:01.143Z,15.07
2023-01-23T19:04:37.624Z,16.57
2023-01-23T19:07:18.204Z,15.07
2023-01-23T19:09:48.946Z,15.93
2023-01-23T19:12:30.898Z,16.17
2023-01-23T19:15:16.500Z,16.93
2023-01-23T19:17:47.779Z,19.80
2023-01-23T19:20:32.938Z,15.77
2023-01-23T19:23:16.085Z,17.13
2023-01-23T19:25:45.436Z,16.00
2023-01-23T19:28:12.459Z,13.93
2023-01-23T19:30:39.552Z,17.20
2023-01-23T19:33:06.436Z,22.80
2023-01-23T19:35:33.155Z,23.63
2023-01-23T19:38:00.363Z,41.43
2023-01-23T19:40:27.099Z,24.60
2023-01-23T19:43:12.826Z,22.27
2023-01-23T19:45:41.114Z,30.57
2023-01-23T19:48:08.881Z,48.33
2023-01-23T19:50:35.737Z,39.83
2023-01-23T19:53:02.486Z,29.70
2023-01-23T19:55:32.663Z,23.83
2023-01-23T19:57:59.804Z,19.73
2023-01-23T20:00:30.746Z,20.53
2023-01-23T20:02:58.394Z,20.63
2023-01-23T20:05:26.711Z,23.37
2023-01-23T20:07:54.137Z,17.67
2023-01-23T20:10:21.585Z,18.77
2023-01-23T20:12:55.195Z,16.20
2023-01-23T20:15:24.290Z,18.50
2023-01-23T20:17:54.295Z,16.90
2023-01-23T20:20:21.855Z,15.47
2023-01-23T20:22:48.901Z,15.33
2023-01-23T20:25:17.357Z,18.50
2023-01-23T20:27:44.868Z,17.60
2023-01-23T20:30:16.094Z,19.83
2023-01-23T20:32:42.980Z,16.37
2023-01-23T20:35:10.452Z,16.87
2023-01-23T20:37:37.446Z,17.33
2023-01-23T20:40:04.701Z,16.90
2023-01-23T20:42:31.512Z,15.93
2023-01-23T20:44:58.250Z,19.93
2023-01-23T20:47:25.039Z,17.03
2023-01-23T20:49:51.848Z,16.40
2023-01-23T20:52:37.268Z,15.50
2023-01-23T20:55:04.215Z,15.63
2023-01-23T20:57:50.988Z,19.40
2023-01-23T21:00:18.149Z,14.70
2023-01-23T21:02:44.910Z,15.37
2023-01-23T21:05:11.692Z,13.77
2023-01-23T21:07:38.506Z,14.73
2023-01-23T21:10:05.689Z,14.27
2023-01-23T21:12:32.826Z,15.30
2023-01-23T21:15:00.449Z,14.63
2023-01-23T21:17:27.355Z,13.63
2023-01-23T21:19:54.086Z,15.33
2023-01-23T21:22:20.879Z,13.30
2023-01-23T21:24:47.620Z,13.90
2023-01-23T21:27:14.490Z,14.20
2023-01-23T21:29:41.269Z,14.37
2023-01-23T21:32:08.018Z,15.10
2023-01-23T21:34:34.908Z,12.90
2023-01-23T21:37:03.237Z,13.37
2023-01-23T21:39:30.078Z,12.20
2023-01-23T21:41:56.796Z,16.30
2023-01-23T21:44:23.582Z,13.17
2023-01-23T21:46:50.834Z,15.03
2023-01-23T21:49:17.732Z,13.97
2023-01-23T21:51:44.970Z,18.10
2023-01-23T21:54:11.781Z,16.00
2023-01-23T21:56:38.582Z,15.37
2023-01-23T21:59:05.377Z,16.43
2023-01-23T22:01:32.827Z,14.93
2023-01-23T22:04:05.223Z,16.90
2023-01-23T22:06:32.950Z,14.80
2023-01-23T22:09:00.117Z,14.70
2023-01-23T22:11:27.384Z,15.10
2023-01-23T22:13:54.582Z,13.87
2023-01-23T22:16:31.948Z,14.67
2023-01-23T22:19:07.450Z,16.97
2023-01-23T22:21:34.269Z,15.30
2023-01-23T22:24:01.420Z,18.70
2023-01-23T22:26:28.371Z,15.97
2023-01-23T22:28:55.120Z,18.23
2023-01-23T22:31:22.118Z,16.10
2023-01-23T22:33:49.081Z,17.33
2023-01-23T22:36:19.201Z,17.40
2023-01-23T22:38:53.420Z,18.67
2023-01-23T22:41:20.669Z,16.00
2023-01-23T22:43:51.595Z,16.93
2023-01-23T22:46:21.019Z,17.53
2023-01-23T22:48:47.859Z,15.13
2023-01-23T22:51:24.806Z,16.07
2023-01-23T22:53:53.403Z,19.17
2023-01-23T22:56:20.689Z,15.43
2023-01-23T22:58:48.811Z,18.37
2023-01-23T23:01:16.272Z,17.27
2023-01-23T23:03:44.097Z,17.97
2023-01-23T23:06:24.184Z,15.07
2023-01-23T23:08:50.967Z,15.43
2023-01-23T23:11:23.605Z,20.43
2023-01-23T23:13:50.829Z,20.00
2023-01-23T23:16:27.178Z,21.10
2023-01-23T23:18:55.650Z,17.47
2023-01-23T23:21:28.259Z,16.87
2023-01-23T23:23:58.031Z,17.03
2023-01-23T23:26:26.757Z,16.80
2023-01-23T23:28:54.806Z,19.60
2023-01-23T23:31:21.712Z,17.20
2023-01-23T23:33:48.586Z,17.33
2023-01-23T23:36:15.443Z,18.70
2023-01-23T23:38:42.205Z,18.23
2023-01-23T23:45:21.871Z,17.83
2023-01-23T23:47:48.854Z,18.13
2023-01-23T23:50:15.891Z,19.07
2023-01-23T23:52:42.670Z,16.97
2023-01-23T23:55:09.689Z,18.70
2023-01-23T23:57:36.479Z,18.53
